Time;durP1;ratioP1;P1;durP2;ratioP2;P2;SDS_P1;SDS_P2;PMS_P1;PMS_P2;Temp;Humidity;BMP_temperature;BMP_pressure;BME280_temperature;BME280_humidity;BME280_pressure;Samples;Min_cycle;Max_cycle;Signal;HPM_P1;HPM_P2
2021/07/18 00:00:01;;;;;;;63.97;36.83;;;16.60;99.90;;;;;;4912221;29;20075;-89
2021/07/18 00:02:48;;;;;;;59.03;37.15;;;16.60;99.90;;;;;;4950110;29;20050;-89
2021/07/18 00:05:38;;;;;;;61.10;35.00;;;16.50;99.90;;;;;;4943749;29;20048;-88
2021/07/18 00:08:25;;;;;;;55.15;35.28;;;16.40;99.90;;;;;;4945333;29;20426;-87
2021/07/18 00:11:12;;;;;;;63.03;36.55;;;16.40;99.90;;;;;;4935885;29;20130;-89
2021/07/18 00:13:59;;;;;;;56.25;35.95;;;16.30;99.90;;;;;;4941662;29;20381;-87
2021/07/18 00:16:50;;;;;;;63.20;36.20;;;16.30;99.90;;;;;;4941555;28;20054;-88
2021/07/18 00:19:38;;;;;;;60.17;35.22;;;16.30;99.90;;;;;;4923198;29;20036;-89
2021/07/18 00:22:26;;;;;;;54.63;34.72;;;16.30;99.90;;;;;;4934264;29;20070;-89
2021/07/18 00:25:13;;;;;;;61.78;34.58;;;16.30;99.90;;;;;;4938532;28;20393;-88
2021/07/18 00:28:02;;;;;;;59.80;35.30;;;16.30;99.90;;;;;;4951666;29;20265;-88
2021/07/18 00:30:49;;;;;;;54.13;36.33;;;16.30;99.90;;;;;;4930232;28;20059;-89
2021/07/18 00:33:38;;;;;;;50.58;32.85;;;16.30;99.90;;;;;;4941511;28;20116;-88
2021/07/18 00:36:26;;;;;;;56.25;35.08;;;16.20;99.90;;;;;;4949243;29;20304;-89
2021/07/18 00:39:15;;;;;;;56.08;33.83;;;16.10;99.90;;;;;;4931808;28;20127;-89
2021/07/18 00:42:03;;;;;;;51.00;33.65;;;16.10;99.90;;;;;;4918195;29;20143;-89
2021/07/18 00:44:52;;;;;;;53.13;31.80;;;16.00;99.90;;;;;;4946098;29;20050;-88
2021/07/18 00:47:41;;;;;;;62.65;33.45;;;16.00;99.90;;;;;;4904377;28;20106;-88
2021/07/18 00:50:29;;;;;;;55.22;34.13;;;16.00;99.90;;;;;;4947792;28;20694;-88
2021/07/18 00:53:16;;;;;;;49.55;32.05;;;16.00;99.90;;;;;;4927521;29;20052;-88
2021/07/18 00:56:04;;;;;;;47.67;31.25;;;16.00;99.90;;;;;;4945592;28;20145;-89
2021/07/18 00:58:54;;;;;;;50.85;31.88;;;15.90;99.90;;;;;;4935082;29;20087;-89
2021/07/18 01:01:41;;;;;;;50.45;30.17;;;15.90;99.90;;;;;;4941908;29;20433;-88
2021/07/18 01:04:32;;;;;;;48.50;30.80;;;15.80;99.90;;;;;;4941852;29;20122;-89
2021/07/18 01:07:19;;;;;;;49.72;29.30;;;15.80;99.90;;;;;;4943493;28;20051;-90
2021/07/18 01:10:08;;;;;;;41.50;26.17;;;15.80;99.90;;;;;;4941060;29;20406;-90
2021/07/18 01:12:56;;;;;;;36.58;25.25;;;15.80;99.90;;;;;;4947410;29;20362;-91
2021/07/18 01:16:00;;;;;;;39.22;24.52;;;15.70;99.90;;;;;;4938769;29;20056;-88
2021/07/18 01:18:50;;;;;;;35.92;23.30;;;15.70;99.90;;;;;;4931484;29;20055;-89
2021/07/18 01:21:39;;;;;;;32.92;21.42;;;15.70;99.90;;;;;;4927959;29;20358;-88
2021/07/18 01:24:28;;;;;;;37.60;21.05;;;15.60;99.90;;;;;;4947225;29;20237;-89
2021/07/18 01:27:17;;;;;;;31.40;18.83;;;15.60;99.90;;;;;;4947220;29;20043;-88
2021/07/18 01:30:09;;;;;;;33.80;18.95;;;15.60;99.90;;;;;;4940051;29;20055;-89
2021/07/18 01:32:57;;;;;;;24.77;14.60;;;15.60;99.90;;;;;;4935598;29;20138;-89
2021/07/18 01:35:44;;;;;;;22.83;15.65;;;15.60;99.90;;;;;;4938839;28;20051;-87
2021/07/18 01:38:34;;;;;;;25.63;14.35;;;15.60;99.90;;;;;;4945344;28;20590;-90
2021/07/18 01:41:22;;;;;;;23.95;13.55;;;15.50;99.90;;;;;;4951369;28;20099;-88
2021/07/18 01:44:10;;;;;;;19.45;13.27;;;15.50;99.90;;;;;;4930117;29;20043;-87
2021/07/18 01:46:58;;;;;;;21.67;13.23;;;15.50;99.90;;;;;;4927393;29;20052;-88
2021/07/18 01:49:45;;;;;;;18.55;11.93;;;15.40;99.90;;;;;;4944741;29;20043;-89
2021/07/18 01:52:33;;;;;;;25.65;12.35;;;15.30;99.90;;;;;;4927209;28;20103;-88
2021/07/18 01:55:22;;;;;;;18.67;12.18;;;15.30;99.90;;;;;;4920885;29;20195;-87
2021/07/18 01:58:09;;;;;;;21.92;11.73;;;15.30;99.90;;;;;;4924947;29;20062;-88
2021/07/18 02:00:57;;;;;;;16.73;12.02;;;15.20;99.90;;;;;;4945554;28;20122;-88
2021/07/18 02:03:46;;;;;;;24.52;12.63;;;15.10;99.90;;;;;;4943468;29;20048;-87
2021/07/18 02:06:33;;;;;;;22.15;13.10;;;15.10;99.90;;;;;;4934178;29;20050;-89
2021/07/18 02:09:21;;;;;;;22.15;13.32;;;15.00;99.90;;;;;;4930179;28;20134;-86
2021/07/18 02:12:09;;;;;;;27.00;14.20;;;15.00;99.90;;;;;;4937983;29;20061;-89
2021/07/18 02:14:56;;;;;;;22.63;14.05;;;15.00;99.90;;;;;;4936435;28;20051;-89
2021/07/18 02:17:43;;;;;;;30.42;15.32;;;15.00;99.90;;;;;;4950078;28;20434;-89
2021/07/18 02:20:31;;;;;;;24.13;15.18;;;15.00;99.90;;;;;;4941303;28;20039;-89
2021/07/18 02:23:21;;;;;;;20.65;14.63;;;15.00;99.90;;;;;;4922160;29;20131;-88
2021/07/18 02:26:11;;;;;;;19.50;13.27;;;14.90;99.90;;;;;;4951137;29;20101;-89
2021/07/18 02:28:59;;;;;;;25.00;12.85;;;14.90;99.90;;;;;;4952397;28;20117;-87
2021/07/18 02:31:47;;;;;;;19.35;13.48;;;14.90;99.90;;;;;;4939348;29;20043;-87
2021/07/18 02:34:34;;;;;;;21.73;12.57;;;14.80;99.90;;;;;;4928807;29;20043;-89
2021/07/18 02:37:22;;;;;;;17.35;11.57;;;14.80;99.90;;;;;;4939029;28;20099;-87
2021/07/18 02:40:11;;;;;;;26.75;11.70;;;14.80;99.90;;;;;;4932925;29;20071;-88
2021/07/18 02:42:59;;;;;;;18.60;10.73;;;14.70;99.90;;;;;;4952342;29;20111;-88
2021/07/18 02:45:47;;;;;;;21.23;11.50;;;14.70;99.90;;;;;;4956114;29;20097;-87
2021/07/18 02:48:38;;;;;;;20.55;12.25;;;14.60;99.90;;;;;;4956309;28;20197;-87
2021/07/18 02:51:25;;;;;;;33.05;14.52;;;14.60;99.90;;;;;;4941693;29;20103;-88
2021/07/18 02:54:12;;;;;;;20.42;13.02;;;14.50;99.90;;;;;;4958526;28;20075;-88
2021/07/18 02:57:00;;;;;;;25.85;12.98;;;14.40;99.90;;;;;;4947914;29;20067;-88
2021/07/18 02:59:48;;;;;;;21.25;14.18;;;14.40;99.90;;;;;;4950384;29;20043;-88
2021/07/18 03:02:35;;;;;;;26.92;14.45;;;14.30;99.90;;;;;;4959133;29;20437;-88
2021/07/18 03:05:23;;;;;;;25.48;14.90;;;14.20;99.90;;;;;;4959290;29;20047;-88
2021/07/18 03:08:10;;;;;;;22.25;16.17;;;14.20;99.90;;;;;;4958105;28;20039;-88
2021/07/18 03:10:57;;;;;;;29.67;17.33;;;14.20;99.90;;;;;;4914942;29;20194;-88
2021/07/18 03:13:45;;;;;;;26.45;17.50;;;14.10;99.90;;;;;;4952881;28;20046;-88
2021/07/18 03:16:32;;;;;;;32.35;20.13;;;14.00;99.90;;;;;;4921588;29;20047;-88
2021/07/18 03:19:23;;;;;;;31.20;20.60;;;14.00;99.90;;;;;;4951170;28;20062;-89
2021/07/18 03:22:11;;;;;;;34.70;20.27;;;14.00;99.90;;;;;;4949246;29;20099;-89
2021/07/18 03:25:01;;;;;;;38.58;22.60;;;14.00;99.90;;;;;;4942560;28;20074;-89
2021/07/18 03:27:50;;;;;;;37.20;20.63;;;14.00;99.90;;;;;;4943111;28;20062;-89
2021/07/18 03:30:38;;;;;;;36.63;21.60;;;14.00;99.90;;;;;;4946488;29;20146;-88
2021/07/18 03:33:26;;;;;;;29.30;18.95;;;13.90;99.90;;;;;;4951184;29;20047;-88
2021/07/18 03:36:13;;;;;;;28.70;18.98;;;13.80;99.90;;;;;;4925273;29;20423;-89
2021/07/18 03:39:01;;;;;;;31.83;19.88;;;13.80;99.90;;;;;;4953278;29;20190;-87
2021/07/18 03:41:48;;;;;;;35.83;20.73;;;13.80;99.90;;;;;;4940874;29;20141;-89
2021/07/18 03:44:37;;;;;;;34.80;21.08;;;13.80;99.90;;;;;;4949669;28;20143;-87
2021/07/18 03:47:24;;;;;;;38.50;20.63;;;13.80;99.90;;;;;;4941349;29;20570;-88
2021/07/18 03:50:14;;;;;;;33.45;19.60;;;13.70;99.90;;;;;;4956026;28;20437;-89
2021/07/18 03:53:01;;;;;;;36.78;18.55;;;13.70;99.90;;;;;;4924887;29;20509;-88
2021/07/18 03:55:48;;;;;;;31.90;19.05;;;13.70;99.90;;;;;;4940128;29;20131;-87
2021/07/18 03:58:35;;;;;;;31.05;19.67;;;13.80;99.90;;;;;;4944750;29;20047;-87
2021/07/18 04:01:24;;;;;;;30.65;18.58;;;13.70;99.90;;;;;;4941657;28;20063;-88
2021/07/18 04:04:12;;;;;;;28.55;18.73;;;13.80;99.90;;;;;;4937998;29;20061;-87
2021/07/18 04:07:02;;;;;;;30.73;19.52;;;13.70;99.90;;;;;;4927075;28;20443;-88
2021/07/18 04:09:49;;;;;;;36.15;18.70;;;13.60;99.90;;;;;;4948433;28;20507;-87
2021/07/18 04:12:37;;;;;;;28.60;18.30;;;13.70;99.90;;;;;;4936948;29;20200;-88
2021/07/18 04:15:25;;;;;;;27.83;18.00;;;13.60;99.90;;;;;;4954089;29;20128;-89
2021/07/18 04:18:17;;;;;;;26.95;16.35;;;13.70;99.90;;;;;;4928103;29;20495;-88
2021/07/18 04:21:05;;;;;;;26.73;15.70;;;13.60;99.90;;;;;;4931509;29;20122;-86
2021/07/18 04:23:52;;;;;;;23.38;15.20;;;13.70;99.90;;;;;;4930919;29;20422;-88
2021/07/18 04:26:39;;;;;;;31.92;17.60;;;13.70;99.90;;;;;;4925570;29;20126;-87
2021/07/18 04:29:28;;;;;;;26.20;17.38;;;13.80;99.90;;;;;;4941917;28;20050;-87
2021/07/18 04:32:17;;;;;;;25.17;15.73;;;13.80;99.90;;;;;;4948102;29;20194;-89
2021/07/18 04:35:04;;;;;;;23.27;16.27;;;13.90;99.90;;;;;;4942862;29;20210;-89
2021/07/18 04:37:54;;;;;;;21.48;14.13;;;13.90;99.90;;;;;;4949506;29;20071;-89
2021/07/18 04:40:43;;;;;;;22.02;13.73;;;14.00;99.90;;;;;;4945231;28;20178;-86
2021/07/18 04:43:33;;;;;;;24.42;14.68;;;14.00;99.90;;;;;;4951121;28;20433;-88
2021/07/18 04:46:20;;;;;;;25.45;13.27;;;14.10;99.90;;;;;;4951555;28;20088;-88
2021/07/18 04:49:07;;;;;;;21.15;13.73;;;14.10;99.90;;;;;;4931516;28;20047;-89
2021/07/18 04:51:55;;;;;;;14.20;10.70;;;14.10;99.90;;;;;;4933963;29;20047;-88
2021/07/18 04:54:44;;;;;;;16.33;10.52;;;14.20;99.90;;;;;;4935834;28;20051;-88
2021/07/18 04:57:34;;;;;;;14.30;10.98;;;14.30;99.90;;;;;;4949418;29;20082;-89
2021/07/18 05:00:22;;;;;;;15.70;9.73;;;14.40;99.90;;;;;;4940775;28;20047;-86
2021/07/18 05:03:10;;;;;;;17.15;10.45;;;14.50;99.90;;;;;;4954309;28;20526;-88
2021/07/18 05:05:58;;;;;;;14.63;9.75;;;14.60;99.90;;;;;;4947511;28;20054;-88
2021/07/18 05:08:45;;;;;;;15.23;10.05;;;14.70;99.90;;;;;;4943789;28;20107;-90
2021/07/18 05:11:32;;;;;;;15.35;9.38;;;14.70;99.90;;;;;;4949735;28;20130;-89
2021/07/18 05:14:19;;;;;;;12.88;8.40;;;14.70;99.90;;;;;;4934921;28;20470;-88
2021/07/18 05:17:07;;;;;;;12.98;8.82;;;14.80;99.90;;;;;;4958651;28;20182;-89
2021/07/18 05:19:55;;;;;;;11.55;8.15;;;14.90;99.90;;;;;;4940732;28;20058;-86
2021/07/18 05:22:42;;;;;;;11.43;8.10;;;14.90;99.90;;;;;;4941702;28;20441;-91
2021/07/18 05:25:29;;;;;;;12.68;8.15;;;15.00;99.90;;;;;;4919029;29;20396;-88
2021/07/18 05:28:17;;;;;;;12.45;7.43;;;15.10;99.90;;;;;;4968888;28;20377;-87
2021/07/18 05:31:04;;;;;;;15.10;7.93;;;15.20;99.90;;;;;;4946820;29;20651;-89
2021/07/18 05:33:52;;;;;;;9.77;6.95;;;15.30;99.90;;;;;;4933130;29;20047;-89
2021/07/18 05:36:39;;;;;;;12.60;7.35;;;15.40;99.90;;;;;;4925983;29;20074;-90
2021/07/18 05:39:28;;;;;;;11.40;6.50;;;15.50;99.90;;;;;;4921056;29;20558;-86
2021/07/18 05:42:16;;;;;;;11.43;5.55;;;15.50;99.90;;;;;;4927885;28;20047;-88
2021/07/18 05:45:07;;;;;;;9.68;5.20;;;15.60;99.90;;;;;;4949478;29;20066;-86
2021/07/18 05:47:55;;;;;;;12.30;5.88;;;15.70;99.90;;;;;;4971880;28;20059;-86
2021/07/18 05:50:47;;;;;;;8.07;5.00;;;15.80;99.90;;;;;;4948468;28;20047;-86
2021/07/18 05:53:34;;;;;;;8.50;4.80;;;15.90;99.90;;;;;;4955785;28;20043;-86
2021/07/18 05:56:24;;;;;;;9.77;5.07;;;16.00;99.90;;;;;;4937792;28;20136;-87
2021/07/18 05:59:13;;;;;;;7.20;4.65;;;16.10;99.90;;;;;;4935915;28;20136;-88
2021/07/18 06:02:01;;;;;;;12.77;4.93;;;16.20;99.90;;;;;;4945625;28;20055;-86
2021/07/18 06:04:49;;;;;;;8.77;5.70;;;16.30;99.90;;;;;;4951039;28;20046;-86
2021/07/18 06:07:39;;;;;;;7.80;4.45;;;16.50;99.90;;;;;;4930940;28;20043;-85
2021/07/18 06:10:27;;;;;;;7.43;4.55;;;16.70;99.90;;;;;;4949129;28;20047;-86
2021/07/18 06:13:14;;;;;;;7.40;4.13;;;16.80;99.90;;;;;;4957936;28;20066;-87
2021/07/18 06:16:02;;;;;;;14.40;4.53;;;17.00;99.90;;;;;;4949321;28;20406;-86
2021/07/18 06:18:49;;;;;;;8.40;4.35;;;17.30;99.90;;;;;;4967296;28;20461;-88
2021/07/18 06:21:37;;;;;;;11.27;3.60;;;17.50;99.90;;;;;;4929168;28;20050;-88
2021/07/18 06:24:25;;;;;;;5.55;3.53;;;17.70;99.90;;;;;;4955488;28;20043;-88
2021/07/18 06:27:12;;;;;;;6.82;3.40;;;18.10;99.90;;;;;;4932205;28;20098;-88
2021/07/18 06:30:01;;;;;;;7.35;3.22;;;18.40;99.90;;;;;;4949103;28;20047;-86
2021/07/18 06:32:49;;;;;;;8.00;3.22;;;18.80;99.90;;;;;;4962330;28;20376;-88
2021/07/18 06:35:36;;;;;;;7.15;2.80;;;19.20;99.90;;;;;;4965115;28;20066;-89
2021/07/18 06:38:24;;;;;;;8.77;2.88;;;19.40;99.90;;;;;;4942660;28;20074;-88
2021/07/18 06:41:11;;;;;;;6.25;2.72;;;19.50;99.90;;;;;;4954597;28;20487;-87
2021/07/18 06:43:58;;;;;;;6.78;2.55;;;19.80;99.90;;;;;;4952406;28;20465;-88
2021/07/18 06:46:49;;;;;;;6.80;2.60;;;20.00;99.90;;;;;;4950782;28;20449;-87
2021/07/18 06:49:39;;;;;;;4.68;2.00;;;20.10;99.90;;;;;;4950741;28;20079;-85
2021/07/18 06:52:27;;;;;;;5.18;2.55;;;20.50;99.90;;;;;;4946386;28;20105;-85
2021/07/18 06:55:16;;;;;;;12.15;2.45;;;20.90;99.90;;;;;;4948337;28;20137;-85
2021/07/18 06:58:06;;;;;;;7.28;2.40;;;21.00;99.90;;;;;;4950700;28;20051;-84
2021/07/18 07:00:53;;;;;;;7.65;2.08;;;21.30;99.90;;;;;;4948830;28;20491;-85
2021/07/18 07:03:42;;;;;;;5.28;2.40;;;21.50;99.90;;;;;;4951267;28;20040;-86
2021/07/18 07:10:32;;;;;;;4.40;1.85;;;22.00;99.90;;;;;;4944247;28;20024;-84
2021/07/18 07:13:19;;;;;;;3.85;1.60;;;22.30;99.90;;;;;;4947455;28;20543;-84
2021/07/18 07:16:07;;;;;;;4.97;2.00;;;22.50;99.90;;;;;;4947273;28;20059;-82
2021/07/18 07:18:54;;;;;;;8.30;2.33;;;22.80;99.90;;;;;;4943614;28;20044;-82
2021/07/18 07:21:41;;;;;;;4.03;1.77;;;23.10;99.60;;;;;;4943834;28;20397;-81
2021/07/18 07:24:28;;;;;;;4.00;2.05;;;23.50;98.30;;;;;;4968361;28;20599;-82
2021/07/18 07:27:16;;;;;;;7.40;2.28;;;23.60;95.50;;;;;;4944618;29;20075;-82
2021/07/18 07:30:07;;;;;;;5.75;2.10;;;23.90;95.50;;;;;;4954592;28;20059;-84
2021/07/18 07:32:57;;;;;;;3.45;2.13;;;24.00;96.70;;;;;;4951916;28;20133;-83
2021/07/18 07:35:46;;;;;;;4.93;2.08;;;24.30;93.80;;;;;;4954600;29;20043;-85
2021/07/18 07:38:36;;;;;;;6.72;1.73;;;24.40;92.80;;;;;;4951437;28;20047;-82
2021/07/18 07:41:23;;;;;;;6.25;1.77;;;24.50;92.60;;;;;;4947040;28;20051;-83
2021/07/18 07:44:11;;;;;;;7.75;2.05;;;24.80;91.40;;;;;;4942588;28;20127;-83
2021/07/18 07:46:59;;;;;;;5.22;2.03;;;25.10;91.20;;;;;;4945613;28;20535;-82
2021/07/18 07:49:48;;;;;;;9.50;1.88;;;25.20;91.10;;;;;;4950051;28;20043;-82
2021/07/18 07:52:36;;;;;;;6.43;2.25;;;25.40;88.90;;;;;;4956121;28;20200;-84
2021/07/18 07:55:24;;;;;;;6.60;2.08;;;25.00;88.30;;;;;;4958271;28;20120;-82
2021/07/18 07:58:13;;;;;;;6.63;1.90;;;25.10;87.10;;;;;;4962361;28;20122;-82
2021/07/18 08:01:01;;;;;;;3.85;1.63;;;25.20;87.20;;;;;;4964729;28;20065;-84
2021/07/18 08:03:51;;;;;;;4.50;2.20;;;25.60;86.10;;;;;;4947416;28;20054;-83
2021/07/18 08:06:40;;;;;;;5.57;2.35;;;25.40;87.70;;;;;;4940588;28;20133;-84
2021/07/18 08:09:28;;;;;;;4.38;2.03;;;25.70;84.10;;;;;;4959927;28;20058;-82
2021/07/18 08:12:15;;;;;;;6.97;2.15;;;25.60;87.80;;;;;;4939523;28;20145;-84
2021/07/18 08:15:03;;;;;;;8.65;2.05;;;26.20;82.30;;;;;;4945574;28;20113;-84
2021/07/18 08:18:12;;;;;;;7.07;2.17;;;26.40;80.90;;;;;;4942373;28;20132;-84
2021/07/18 08:20:59;;;;;;;6.40;1.90;;;26.60;78.70;;;;;;4948221;28;20051;-85
2021/07/18 08:23:49;;;;;;;6.85;2.10;;;26.70;81.70;;;;;;4951493;28;20050;-84
2021/07/18 08:26:38;;;;;;;3.88;2.13;;;26.80;76.70;;;;;;4953794;28;20456;-84
2021/07/18 08:29:26;;;;;;;6.22;2.55;;;26.70;79.40;;;;;;4955352;28;20125;-85
2021/07/18 08:32:13;;;;;;;6.95;2.72;;;27.20;77.60;;;;;;4945527;28;20067;-85
2021/07/18 08:35:01;;;;;;;7.68;2.25;;;27.00;75.10;;;;;;4942320;28;20150;-84
2021/07/18 08:37:50;;;;;;;2.42;1.75;;;26.80;75.80;;;;;;4965859;28;20055;-86
2021/07/18 08:40:40;;;;;;;10.80;2.72;;;26.90;75.30;;;;;;4954730;28;20142;-83
2021/07/18 08:43:27;;;;;;;6.65;2.10;;;26.80;72.80;;;;;;4943397;28;20067;-83
2021/07/18 08:46:19;;;;;;;4.88;1.80;;;27.00;74.40;;;;;;4941935;28;20489;-84
2021/07/18 08:49:07;;;;;;;4.68;2.00;;;27.40;74.50;;;;;;4946336;28;20178;-85
2021/07/18 08:51:54;;;;;;;3.75;2.00;;;27.80;72.00;;;;;;4959270;28;20051;-85
2021/07/18 08:54:45;;;;;;;7.38;2.60;;;27.90;69.80;;;;;;4928270;29;20416;-86
2021/07/18 08:57:35;;;;;;;5.75;2.58;;;27.70;70.60;;;;;;4951951;28;20520;-84
2021/07/18 09:00:23;;;;;;;5.32;2.17;;;27.20;70.90;;;;;;4952198;28;20163;-85
2021/07/18 09:03:17;;;;;;;12.32;2.80;;;27.30;74.20;;;;;;4942420;28;20044;-85
2021/07/18 09:06:09;;;;;;;5.55;2.20;;;27.30;71.90;;;;;;4953654;28;20062;-84
2021/07/18 09:08:56;;;;;;;10.55;2.38;;;27.60;73.50;;;;;;4953732;28;20070;-85
2021/07/18 09:11:54;;;;;;;5.38;2.25;;;28.50;71.30;;;;;;4957525;28;20460;-86
2021/07/18 09:14:47;;;;;;;6.10;2.55;;;28.60;68.50;;;;;;4964992;28;20194;-84
2021/07/18 09:17:37;;;;;;;6.53;2.00;;;29.00;67.90;;;;;;4950404;28;20130;-84
2021/07/18 09:20:38;;;;;;;5.30;2.15;;;29.40;64.80;;;;;;4941782;28;20147;-83
2021/07/18 09:23:30;;;;;;;5.38;2.33;;;29.90;62.80;;;;;;4952258;28;20357;-85
2021/07/18 09:26:22;;;;;;;6.53;2.45;;;29.50;63.20;;;;;;4963230;28;20051;-83
2021/07/18 09:29:25;;;;;;;4.32;2.28;;;29.40;61.50;;;;;;4953427;28;20121;-84
2021/07/18 09:32:18;;;;;;;6.00;2.30;;;29.90;62.90;;;;;;4954228;29;20091;-88
2021/07/18 09:35:09;;;;;;;7.80;2.35;;;30.00;61.60;;;;;;4947979;28;20075;-85
2021/07/18 09:37:56;;;;;;;6.55;2.75;;;30.40;60.00;;;;;;4945749;28;20551;-86
2021/07/18 09:40:58;;;;;;;7.60;2.22;;;30.60;58.80;;;;;;4957839;28;20063;-86
2021/07/18 09:43:57;;;;;;;3.53;2.03;;;30.10;59.40;;;;;;4954412;28;20082;-86
2021/07/18 09:46:45;;;;;;;3.72;1.90;;;30.10;62.10;;;;;;4958433;28;20341;-87
2021/07/18 09:49:38;;;;;;;3.42;1.92;;;30.00;60.50;;;;;;4952639;28;20051;-86
2021/07/18 09:52:28;;;;;;;6.78;2.08;;;30.80;59.10;;;;;;4967090;28;20061;-86
2021/07/18 09:55:21;;;;;;;6.68;1.88;;;31.10;59.10;;;;;;4938977;29;20050;-91
2021/07/18 09:58:08;;;;;;;4.43;1.95;;;31.40;59.10;;;;;;4956455;28;20107;-89
2021/07/18 10:01:02;;;;;;;4.72;1.90;;;31.70;58.50;;;;;;4950883;28;20050;-86
2021/07/18 10:03:57;;;;;;;5.72;1.73;;;31.90;56.20;;;;;;4956982;28;20043;-85
2021/07/18 10:07:03;;;;;;;8.90;2.08;;;32.70;53.70;;;;;;4957427;28;20050;-87
2021/07/18 10:09:53;;;;;;;3.95;1.75;;;32.40;54.90;;;;;;4937617;28;20054;-89
2021/07/18 10:12:43;;;;;;;;;;;32.80;54.70;;;;;;4927748;28;20044;-87
2021/07/18 10:15:31;;;;;;;4.63;1.80;;;32.70;54.90;;;;;;4959869;28;19990;-86
2021/07/18 10:18:19;;;;;;;6.00;2.17;;;32.30;53.90;;;;;;4954330;28;20050;-86
2021/07/18 10:21:11;;;;;;;6.22;1.83;;;32.50;58.20;;;;;;4956437;28;20051;-86
2021/07/18 10:23:58;;;;;;;6.32;1.67;;;32.80;53.20;;;;;;4928602;28;20116;-86
2021/07/18 10:26:48;;;;;;;4.13;1.80;;;32.90;52.30;;;;;;4943956;28;20055;-87
2021/07/18 10:29:39;;;;;;;5.40;2.53;;;32.60;52.30;;;;;;4970166;28;20076;-85
2021/07/18 10:32:26;;;;;;;7.47;2.15;;;31.90;53.90;;;;;;4952724;28;20130;-86
2021/07/18 10:35:14;;;;;;;10.25;2.17;;;32.00;52.70;;;;;;4956687;28;20206;-90
2021/07/18 10:38:15;;;;;;;4.32;2.17;;;31.70;52.70;;;;;;4941645;29;20046;-90
2021/07/18 10:41:05;;;;;;;6.97;2.13;;;31.50;54.60;;;;;;4955504;28;20102;-84
2021/07/18 10:43:55;;;;;;;7.97;2.40;;;31.00;52.80;;;;;;4941570;28;20079;-86
2021/07/18 10:46:42;;;;;;;4.13;2.03;;;31.10;53.90;;;;;;4938203;29;20130;-85
2021/07/18 10:50:05;;;;;;;7.13;2.10;;;31.30;54.70;;;;;;4936317;29;20178;-85
2021/07/18 10:53:12;;;;;;;;;;;31.70;54.20;;;;;;4916682;29;20067;-87
2021/07/18 10:56:01;;;;;;;4.03;2.15;;;32.10;52.80;;;;;;4947821;28;19926;-87
2021/07/18 10:58:51;;;;;;;3.92;1.92;;;32.50;52.20;;;;;;4929737;29;20166;-87
2021/07/18 11:01:39;;;;;;;7.22;2.17;;;32.80;53.70;;;;;;4951241;29;20137;-88
2021/07/18 11:04:43;;;;;;;3.53;1.83;;;33.00;50.00;;;;;;4965344;28;20039;-85
2021/07/18 11:07:35;;;;;;;5.22;1.98;;;32.40;50.30;;;;;;4947164;28;20175;-90
2021/07/18 11:10:24;;;;;;;8.43;2.75;;;32.30;50.60;;;;;;4926293;29;20433;-91
2021/07/18 11:13:12;;;;;;;3.58;1.75;;;32.00;50.20;;;;;;4941779;28;20040;-88
2021/07/18 11:16:07;;;;;;;4.80;2.13;;;32.20;50.20;;;;;;4934718;29;20052;-86
2021/07/18 11:18:54;;;;;;;6.93;2.33;;;32.10;49.90;;;;;;4923625;28;20051;-87
2021/07/18 11:21:50;;;;;;;5.90;1.90;;;32.10;50.40;;;;;;4956634;28;20058;-87
2021/07/18 11:24:53;;;;;;;4.55;2.60;;;32.00;49.40;;;;;;4961926;28;20047;-89
2021/07/18 11:27:47;;;;;;;4.68;2.08;;;31.50;50.60;;;;;;4954722;28;20055;-88
2021/07/18 11:30:39;;;;;;;4.32;2.33;;;31.20;51.60;;;;;;4953344;28;20433;-88
2021/07/18 11:33:29;;;;;;;10.93;2.40;;;30.80;52.50;;;;;;4969402;28;20377;-89
2021/07/18 11:36:34;;;;;;;6.00;2.20;;;31.00;53.70;;;;;;4947200;28;20051;-88
2021/07/18 11:39:23;;;;;;;3.97;2.10;;;31.60;52.10;;;;;;4949022;28;20059;-90
2021/07/18 11:42:16;;;;;;;5.95;2.22;;;32.20;52.10;;;;;;4955935;28;20129;-89
2021/07/18 11:45:11;;;;;;;6.03;2.47;;;32.60;50.30;;;;;;4963245;28;20138;-89
2021/07/18 11:48:01;;;;;;;4.00;2.10;;;32.90;50.90;;;;;;4938673;28;20146;-87
2021/07/18 11:50:49;;;;;;;3.92;2.13;;;33.40;48.70;;;;;;4964227;28;20441;-87
2021/07/18 11:53:42;;;;;;;4.47;1.92;;;33.80;48.70;;;;;;4951856;28;20059;-86
2021/07/18 11:56:31;;;;;;;4.20;2.00;;;33.60;46.70;;;;;;4940027;28;20093;-84
2021/07/18 11:59:21;;;;;;;7.07;2.95;;;32.80;47.70;;;;;;4943840;28;20334;-86
2021/07/18 12:02:09;;;;;;;8.00;2.00;;;33.30;48.00;;;;;;4962557;28;20095;-84
2021/07/18 12:05:08;;;;;;;4.50;2.00;;;33.80;47.60;;;;;;4936957;29;20043;-84
2021/07/18 12:08:07;;;;;;;9.10;2.08;;;33.70;47.10;;;;;;4940763;28;20229;-84
2021/07/18 12:11:04;;;;;;;3.42;1.92;;;33.90;48.70;;;;;;4950851;28;20040;-89
2021/07/18 12:13:54;;;;;;;5.90;2.45;;;33.60;47.10;;;;;;4954588;28;20071;-85
2021/07/18 12:16:44;;;;;;;4.88;2.17;;;33.30;49.40;;;;;;4970379;28;20385;-87
2021/07/18 12:19:36;;;;;;;4.05;2.20;;;33.10;47.70;;;;;;4969328;28;20095;-88
2021/07/18 12:22:24;;;;;;;4.20;2.25;;;33.30;47.80;;;;;;4949424;28;20079;-89
2021/07/18 12:25:18;;;;;;;4.32;2.40;;;33.40;46.50;;;;;;4945751;28;20122;-85
2021/07/18 12:28:08;;;;;;;3.97;2.38;;;33.80;45.00;;;;;;4962753;28;20043;-86
2021/07/18 12:30:55;;;;;;;6.00;2.13;;;33.50;48.00;;;;;;4955164;28;20543;-90
2021/07/18 12:33:42;;;;;;;5.78;3.05;;;33.50;46.10;;;;;;4953128;28;20046;-85
2021/07/18 12:36:30;;;;;;;3.53;2.53;;;33.90;45.30;;;;;;4959783;28;20133;-89
2021/07/18 12:39:18;;;;;;;8.73;3.03;;;34.70;44.40;;;;;;4927981;29;20092;-86
2021/07/18 12:42:34;;;;;;;3.97;2.95;;;34.90;43.10;;;;;;4964861;28;20053;-88
2021/07/18 12:45:25;;;;;;;7.50;3.30;;;34.60;43.40;;;;;;4947197;28;20380;-84
2021/07/18 12:48:21;;;;;;;8.98;3.58;;;34.50;42.70;;;;;;4933712;28;20134;-85
2021/07/18 12:51:16;;;;;;;7.47;3.80;;;35.20;44.00;;;;;;4947014;28;20485;-88
2021/07/18 12:54:04;;;;;;;6.38;4.63;;;35.30;43.40;;;;;;4934300;28;20104;-86
2021/07/18 12:56:54;;;;;;;8.65;5.72;;;34.80;42.20;;;;;;4938395;28;20103;-85
2021/07/18 12:59:42;;;;;;;8.23;6.53;;;33.80;43.00;;;;;;4947882;28;20058;-87
2021/07/18 13:02:29;;;;;;;10.35;7.05;;;33.50;45.30;;;;;;4963219;28;20183;-88
2021/07/18 13:05:16;;;;;;;9.25;6.75;;;33.50;44.40;;;;;;4942037;28;20051;-86
2021/07/18 13:08:05;;;;;;;9.35;6.75;;;32.80;46.40;;;;;;4950634;28;20125;-90
2021/07/18 13:10:56;;;;;;;9.27;6.93;;;33.10;46.50;;;;;;4942829;28;20102;-85
2021/07/18 13:13:43;;;;;;;11.02;8.35;;;32.70;46.20;;;;;;4966568;28;20091;-85
2021/07/18 13:16:35;;;;;;;11.32;8.20;;;33.10;45.00;;;;;;4931212;29;20051;-85
2021/07/18 13:19:23;;;;;;;12.13;8.35;;;33.50;46.60;;;;;;4941659;28;20047;-87
2021/07/18 13:22:13;;;;;;;12.05;8.70;;;33.70;44.50;;;;;;4951465;28;20102;-85
2021/07/18 13:25:15;;;;;;;14.40;9.20;;;33.90;45.30;;;;;;4935992;28;20075;-86
2021/07/18 13:28:04;;;;;;;;;;;34.60;46.30;;;;;;4966226;28;20061;-86
2021/07/18 13:30:54;;;;;;;13.27;9.82;;;34.60;42.60;;;;;;4941053;28;20077;-87
2021/07/18 13:33:43;;;;;;;14.10;9.52;;;34.20;43.20;;;;;;4935426;28;20054;-88
2021/07/18 13:36:31;;;;;;;17.42;10.48;;;34.20;44.80;;;;;;4966661;28;20519;-88
2021/07/18 13:39:18;;;;;;;12.65;9.90;;;34.50;43.30;;;;;;4938423;28;20141;-89
2021/07/18 13:42:10;;;;;;;13.38;10.13;;;34.40;43.50;;;;;;4939802;28;20099;-88
2021/07/18 13:44:58;;;;;;;12.70;9.90;;;34.10;42.30;;;;;;4958152;28;20087;-88
2021/07/18 13:47:48;;;;;;;15.25;10.70;;;34.40;43.70;;;;;;4956177;28;20496;-90
2021/07/18 13:50:39;;;;;;;14.88;11.35;;;35.00;43.10;;;;;;4954330;28;20091;-90
2021/07/18 13:53:27;;;;;;;13.05;10.55;;;35.60;42.40;;;;;;4950647;28;20525;-90
2021/07/18 13:56:16;;;;;;;14.95;11.13;;;36.10;40.90;;;;;;4951828;28;20357;-88
2021/07/18 13:59:03;;;;;;;13.90;11.25;;;35.20;41.50;;;;;;4938871;28;20139;-88
2021/07/18 14:01:51;;;;;;;12.80;10.20;;;34.40;43.20;;;;;;4955728;28;20133;-87
2021/07/18 14:04:38;;;;;;;14.18;10.77;;;34.50;43.80;;;;;;4943069;28;20049;-86
2021/07/18 14:07:26;;;;;;;14.18;10.68;;;34.20;45.00;;;;;;4962226;28;20119;-88
2021/07/18 14:10:14;;;;;;;14.32;11.02;;;34.30;44.00;;;;;;4950740;28;20051;-88
2021/07/18 14:13:04;;;;;;;15.93;11.70;;;33.10;45.20;;;;;;4950161;28;20182;-88
2021/07/18 14:15:53;;;;;;;18.52;12.95;;;32.40;47.80;;;;;;4968329;28;20133;-85
2021/07/18 14:18:42;;;;;;;16.52;12.20;;;32.90;46.50;;;;;;4956891;28;20206;-87
2021/07/18 14:21:32;;;;;;;15.50;12.60;;;33.80;45.50;;;;;;4937455;28;20043;-88
2021/07/18 14:24:20;;;;;;;17.15;12.50;;;34.40;43.70;;;;;;4951561;28;20095;-87
2021/07/18 14:27:09;;;;;;;16.27;13.02;;;34.40;43.60;;;;;;4945192;28;20138;-89
2021/07/18 14:29:56;;;;;;;17.67;12.68;;;34.60;43.00;;;;;;4959608;28;20365;-85
2021/07/18 14:32:47;;;;;;;16.05;12.88;;;34.60;43.90;;;;;;4944681;28;20052;-87
2021/07/18 14:35:38;;;;;;;17.23;13.27;;;34.80;43.80;;;;;;4945738;28;20054;-89